sensor_id;sensor_type;location;lat;lon;timestamp;temperature;humidity
9209;DHT22;4639;48.862;9.188;2023-07-09T00:00:55;25.30;99.90
9209;DHT22;4639;48.862;9.188;2023-07-09T00:03:22;25.30;99.90
9209;DHT22;4639;48.862;9.188;2023-07-09T00:05:48;25.20;99.90
9209;DHT22;4639;48.862;9.188;2023-07-09T00:08:29;25.20;99.90
9209;DHT22;4639;48.862;9.188;2023-07-09T00:10:57;25.10;99.90
9209;DHT22;4639;48.862;9.188;2023-07-09T00:13:24;25.00;99.90
9209;DHT22;4639;48.862;9.188;2023-07-09T00:15:51;24.80;99.90
9209;DHT22;4639;48.862;9.188;2023-07-09T00:18:17;24.80;99.90
9209;DHT22;4639;48.862;9.188;2023-07-09T00:20:42;24.70;99.90
9209;DHT22;4639;48.862;9.188;2023-07-09T00:23:12;24.70;99.90
9209;DHT22;4639;48.862;9.188;2023-07-09T00:25:42;24.60;99.90
9209;DHT22;4639;48.862;9.188;2023-07-09T00:28:18;24.60;99.90
9209;DHT22;4639;48.862;9.188;2023-07-09T00:30:45;24.60;99.90
9209;DHT22;4639;48.862;9.188;2023-07-09T00:33:12;24.60;99.90
9209;DHT22;4639;48.862;9.188;2023-07-09T00:35:42;24.80;99.90
9209;DHT22;4639;48.862;9.188;2023-07-09T00:38:21;24.60;99.90
9209;DHT22;4639;48.862;9.188;2023-07-09T00:40:56;24.50;99.90
9209;DHT22;4639;48.862;9.188;2023-07-09T00:43:24;24.50;99.90
9209;DHT22;4639;48.862;9.188;2023-07-09T00:48:41;24.30;99.90
9209;DHT22;4639;48.862;9.188;2023-07-09T00:51:16;24.30;99.90
9209;DHT22;4639;48.862;9.188;2023-07-09T00:53:44;24.30;99.90
9209;DHT22;4639;48.862;9.188;2023-07-09T00:56:14;24.30;99.90
9209;DHT22;4639;48.862;9.188;2023-07-09T00:58:42;24.20;99.90
9209;DHT22;4639;48.862;9.188;2023-07-09T01:01:10;24.20;99.90
9209;DHT22;4639;48.862;9.188;2023-07-09T01:03:41;24.20;99.90
9209;DHT22;4639;48.862;9.188;2023-07-09T01:06:08;24.10;99.90
9209;DHT22;4639;48.862;9.188;2023-07-09T01:08:36;24.00;99.90
9209;DHT22;4639;48.862;9.188;2023-07-09T01:11:02;23.90;99.90
9209;DHT22;4639;48.862;9.188;2023-07-09T01:13:29;23.90;99.90
9209;DHT22;4639;48.862;9.188;2023-07-09T01:15:57;24.00;99.90
9209;DHT22;4639;48.862;9.188;2023-07-09T01:18:23;24.10;99.90
9209;DHT22;4639;48.862;9.188;2023-07-09T01:20:50;23.90;99.90
9209;DHT22;4639;48.862;9.188;2023-07-09T01:23:18;23.90;99.90
9209;DHT22;4639;48.862;9.188;2023-07-09T01:25:46;23.90;99.90
9209;DHT22;4639;48.862;9.188;2023-07-09T01:28:17;23.90;99.90
9209;DHT22;4639;48.862;9.188;2023-07-09T01:30:43;23.80;99.90
9209;DHT22;4639;48.862;9.188;2023-07-09T01:33:09;23.80;99.90
9209;DHT22;4639;48.862;9.188;2023-07-09T01:35:37;24.00;99.90
9209;DHT22;4639;48.862;9.188;2023-07-09T01:38:03;23.90;99.90
9209;DHT22;4639;48.862;9.188;2023-07-09T01:40:32;23.80;99.90
9209;DHT22;4639;48.862;9.188;2023-07-09T01:42:59;23.70;99.90
9209;DHT22;4639;48.862;9.188;2023-07-09T01:45:25;23.60;99.90
9209;DHT22;4639;48.862;9.188;2023-07-09T01:47:51;23.60;99.90
9209;DHT22;4639;48.862;9.188;2023-07-09T01:50:19;23.50;99.90
9209;DHT22;4639;48.862;9.188;2023-07-09T01:52:45;23.40;99.90
9209;DHT22;4639;48.862;9.188;2023-07-09T01:55:13;23.40;99.90
9209;DHT22;4639;48.862;9.188;2023-07-09T01:57:40;23.40;99.90
9209;DHT22;4639;48.862;9.188;2023-07-09T02:00:12;23.20;99.90
9209;DHT22;4639;48.862;9.188;2023-07-09T02:02:39;23.20;99.90
9209;DHT22;4639;48.862;9.188;2023-07-09T02:05:09;23.20;99.90
9209;DHT22;4639;48.862;9.188;2023-07-09T02:07:34;23.10;99.90
9209;DHT22;4639;48.862;9.188;2023-07-09T02:10:00;23.40;99.90
9209;DHT22;4639;48.862;9.188;2023-07-09T02:12:26;23.10;99.90
9209;DHT22;4639;48.862;9.188;2023-07-09T02:14:52;23.10;99.90
9209;DHT22;4639;48.862;9.188;2023-07-09T02:17:18;23.10;99.90
9209;DHT22;4639;48.862;9.188;2023-07-09T02:19:44;23.10;99.90
9209;DHT22;4639;48.862;9.188;2023-07-09T02:22:10;23.10;99.90
9209;DHT22;4639;48.862;9.188;2023-07-09T02:24:36;23.20;99.90
9209;DHT22;4639;48.862;9.188;2023-07-09T02:27:04;23.10;99.90
9209;DHT22;4639;48.862;9.188;2023-07-09T02:29:31;23.10;99.90
9209;DHT22;4639;48.862;9.188;2023-07-09T02:31:58;23.10;99.90
9209;DHT22;4639;48.862;9.188;2023-07-09T02:34:29;23.10;99.90
9209;DHT22;4639;48.862;9.188;2023-07-09T02:36:56;23.10;99.90
9209;DHT22;4639;48.862;9.188;2023-07-09T02:39:22;23.00;99.90
9209;DHT22;4639;48.862;9.188;2023-07-09T02:41:48;23.00;99.90
9209;DHT22;4639;48.862;9.188;2023-07-09T02:44:15;23.00;99.90
9209;DHT22;4639;48.862;9.188;2023-07-09T02:46:40;22.90;99.90
9209;DHT22;4639;48.862;9.188;2023-07-09T02:49:09;22.90;99.90
9209;DHT22;4639;48.862;9.188;2023-07-09T02:51:34;22.90;99.90
9209;DHT22;4639;48.862;9.188;2023-07-09T02:54:01;22.80;99.90
9209;DHT22;4639;48.862;9.188;2023-07-09T02:56:28;22.90;99.90
9209;DHT22;4639;48.862;9.188;2023-07-09T02:58:54;22.80;99.90
9209;DHT22;4639;48.862;9.188;2023-07-09T03:01:20;22.80;99.90
9209;DHT22;4639;48.862;9.188;2023-07-09T03:03:57;22.80;99.90
9209;DHT22;4639;48.862;9.188;2023-07-09T03:06:25;22.70;99.90
9209;DHT22;4639;48.862;9.188;2023-07-09T03:08:51;22.70;99.90
9209;DHT22;4639;48.862;9.188;2023-07-09T03:11:17;22.60;99.90
9209;DHT22;4639;48.862;9.188;2023-07-09T03:13:43;22.50;99.90
9209;DHT22;4639;48.862;9.188;2023-07-09T03:16:09;22.50;99.90
9209;DHT22;4639;48.862;9.188;2023-07-09T03:18:35;22.60;99.90
9209;DHT22;4639;48.862;9.188;2023-07-09T03:21:01;22.60;99.90
9209;DHT22;4639;48.862;9.188;2023-07-09T03:23:26;22.50;99.90
9209;DHT22;4639;48.862;9.188;2023-07-09T03:25:52;22.60;99.90
9209;DHT22;4639;48.862;9.188;2023-07-09T03:28:18;22.50;99.90
9209;DHT22;4639;48.862;9.188;2023-07-09T03:30:45;22.60;99.90
9209;DHT22;4639;48.862;9.188;2023-07-09T03:33:13;22.50;99.90
9209;DHT22;4639;48.862;9.188;2023-07-09T03:35:39;22.70;99.90
9209;DHT22;4639;48.862;9.188;2023-07-09T03:38:05;22.30;99.90
9209;DHT22;4639;48.862;9.188;2023-07-09T03:40:31;22.30;99.90
9209;DHT22;4639;48.862;9.188;2023-07-09T03:42:57;22.30;99.90
9209;DHT22;4639;48.862;9.188;2023-07-09T03:45:23;22.30;99.90
9209;DHT22;4639;48.862;9.188;2023-07-09T03:47:49;22.30;99.90
9209;DHT22;4639;48.862;9.188;2023-07-09T03:50:14;22.30;99.90
9209;DHT22;4639;48.862;9.188;2023-07-09T03:52:40;22.20;99.90
9209;DHT22;4639;48.862;9.188;2023-07-09T03:55:06;22.30;99.90
9209;DHT22;4639;48.862;9.188;2023-07-09T03:57:32;22.20;99.90
9209;DHT22;4639;48.862;9.188;2023-07-09T03:59:58;22.20;99.90
9209;DHT22;4639;48.862;9.188;2023-07-09T04:02:24;22.10;99.90
9209;DHT22;4639;48.862;9.188;2023-07-09T04:04:49;22.20;99.90
9209;DHT22;4639;48.862;9.188;2023-07-09T04:07:15;22.10;99.90
9209;DHT22;4639;48.862;9.188;2023-07-09T04:09:41;22.10;99.90
9209;DHT22;4639;48.862;9.188;2023-07-09T04:12:08;22.10;99.90
9209;DHT22;4639;48.862;9.188;2023-07-09T04:14:34;22.10;99.90
9209;DHT22;4639;48.862;9.188;2023-07-09T04:17:00;22.10;99.90
9209;DHT22;4639;48.862;9.188;2023-07-09T04:19:26;22.00;99.90
9209;DHT22;4639;48.862;9.188;2023-07-09T04:21:52;21.90;99.90
9209;DHT22;4639;48.862;9.188;2023-07-09T04:24:18;21.90;99.90
9209;DHT22;4639;48.862;9.188;2023-07-09T04:26:44;21.90;99.90
9209;DHT22;4639;48.862;9.188;2023-07-09T04:29:10;21.90;99.90
9209;DHT22;4639;48.862;9.188;2023-07-09T04:31:36;21.90;99.90
9209;DHT22;4639;48.862;9.188;2023-07-09T04:34:03;21.80;99.90
9209;DHT22;4639;48.862;9.188;2023-07-09T04:36:29;21.80;99.90
9209;DHT22;4639;48.862;9.188;2023-07-09T04:38:54;21.80;99.90
9209;DHT22;4639;48.862;9.188;2023-07-09T04:41:20;21.80;99.90
9209;DHT22;4639;48.862;9.188;2023-07-09T04:43:45;21.80;99.90
9209;DHT22;4639;48.862;9.188;2023-07-09T04:46:11;21.80;99.90
9209;DHT22;4639;48.862;9.188;2023-07-09T04:48:37;21.90;99.90
9209;DHT22;4639;48.862;9.188;2023-07-09T04:51:04;21.90;99.90
9209;DHT22;4639;48.862;9.188;2023-07-09T04:53:29;21.90;99.90
9209;DHT22;4639;48.862;9.188;2023-07-09T04:55:55;21.90;99.90
9209;DHT22;4639;48.862;9.188;2023-07-09T04:58:21;22.00;99.90
9209;DHT22;4639;48.862;9.188;2023-07-09T05:00:46;22.00;99.90
9209;DHT22;4639;48.862;9.188;2023-07-09T05:03:12;22.00;99.90
9209;DHT22;4639;48.862;9.188;2023-07-09T05:05:47;22.20;99.90
9209;DHT22;4639;48.862;9.188;2023-07-09T05:08:14;22.10;99.90
9209;DHT22;4639;48.862;9.188;2023-07-09T05:10:46;22.10;99.90
9209;DHT22;4639;48.862;9.188;2023-07-09T05:13:12;22.10;99.90
9209;DHT22;4639;48.862;9.188;2023-07-09T05:15:43;22.00;99.90
9209;DHT22;4639;48.862;9.188;2023-07-09T05:18:09;22.00;99.90
9209;DHT22;4639;48.862;9.188;2023-07-09T05:20:35;22.00;99.90
9209;DHT22;4639;48.862;9.188;2023-07-09T05:23:01;22.00;99.90
9209;DHT22;4639;48.862;9.188;2023-07-09T05:25:26;22.00;99.90
9209;DHT22;4639;48.862;9.188;2023-07-09T05:27:52;22.30;99.90
9209;DHT22;4639;48.862;9.188;2023-07-09T05:30:21;22.20;99.90
9209;DHT22;4639;48.862;9.188;2023-07-09T05:32:46;22.30;99.90
9209;DHT22;4639;48.862;9.188;2023-07-09T05:35:13;22.20;99.90
9209;DHT22;4639;48.862;9.188;2023-07-09T05:37:39;22.30;99.90
9209;DHT22;4639;48.862;9.188;2023-07-09T05:40:06;22.40;99.90
9209;DHT22;4639;48.862;9.188;2023-07-09T05:42:32;22.30;99.90
9209;DHT22;4639;48.862;9.188;2023-07-09T05:44:58;22.40;99.90
9209;DHT22;4639;48.862;9.188;2023-07-09T05:47:24;22.40;99.90
9209;DHT22;4639;48.862;9.188;2023-07-09T05:49:50;22.50;99.90
9209;DHT22;4639;48.862;9.188;2023-07-09T05:52:21;22.60;99.90
9209;DHT22;4639;48.862;9.188;2023-07-09T05:54:49;22.60;99.90
9209;DHT22;4639;48.862;9.188;2023-07-09T05:57:15;22.90;99.90
9209;DHT22;4639;48.862;9.188;2023-07-09T05:59:41;22.80;99.90
9209;DHT22;4639;48.862;9.188;2023-07-09T06:02:17;22.90;99.90
9209;DHT22;4639;48.862;9.188;2023-07-09T06:04:43;22.90;99.90
9209;DHT22;4639;48.862;9.188;2023-07-09T06:07:09;23.00;99.90
9209;DHT22;4639;48.862;9.188;2023-07-09T06:09:35;23.10;99.90
9209;DHT22;4639;48.862;9.188;2023-07-09T06:12:02;23.30;99.90
9209;DHT22;4639;48.862;9.188;2023-07-09T06:14:28;23.20;99.90
9209;DHT22;4639;48.862;9.188;2023-07-09T06:16:53;23.30;99.90
9209;DHT22;4639;48.862;9.188;2023-07-09T06:19:19;23.30;99.90
9209;DHT22;4639;48.862;9.188;2023-07-09T06:21:45;23.40;99.90
9209;DHT22;4639;48.862;9.188;2023-07-09T06:24:10;23.50;99.90
9209;DHT22;4639;48.862;9.188;2023-07-09T06:26:36;23.30;99.90
9209;DHT22;4639;48.862;9.188;2023-07-09T06:29:02;23.40;99.90
9209;DHT22;4639;48.862;9.188;2023-07-09T06:31:28;23.50;99.90
9209;DHT22;4639;48.862;9.188;2023-07-09T06:33:53;23.60;99.90
9209;DHT22;4639;48.862;9.188;2023-07-09T06:36:19;23.70;99.90
9209;DHT22;4639;48.862;9.188;2023-07-09T06:38:45;23.80;99.90
9209;DHT22;4639;48.862;9.188;2023-07-09T06:41:13;23.90;99.90
9209;DHT22;4639;48.862;9.188;2023-07-09T06:43:38;24.00;99.90
9209;DHT22;4639;48.862;9.188;2023-07-09T06:46:06;24.10;99.90
9209;DHT22;4639;48.862;9.188;2023-07-09T06:48:33;24.10;99.90
9209;DHT22;4639;48.862;9.188;2023-07-09T06:50:59;24.20;99.90
9209;DHT22;4639;48.862;9.188;2023-07-09T06:53:26;24.30;99.90
9209;DHT22;4639;48.862;9.188;2023-07-09T06:55:52;24.30;99.90
9209;DHT22;4639;48.862;9.188;2023-07-09T06:58:24;24.40;99.90
9209;DHT22;4639;48.862;9.188;2023-07-09T07:00:51;24.50;99.90
9209;DHT22;4639;48.862;9.188;2023-07-09T07:03:16;24.60;99.90
9209;DHT22;4639;48.862;9.188;2023-07-09T07:05:46;24.70;99.90
9209;DHT22;4639;48.862;9.188;2023-07-09T07:08:15;24.80;99.90
9209;DHT22;4639;48.862;9.188;2023-07-09T07:10:41;24.90;99.90
9209;DHT22;4639;48.862;9.188;2023-07-09T07:13:07;24.90;99.90
9209;DHT22;4639;48.862;9.188;2023-07-09T07:15:34;25.10;99.90
9209;DHT22;4639;48.862;9.188;2023-07-09T07:18:00;25.10;99.90
9209;DHT22;4639;48.862;9.188;2023-07-09T07:20:25;25.30;99.90
9209;DHT22;4639;48.862;9.188;2023-07-09T07:22:51;25.40;99.90
9209;DHT22;4639;48.862;9.188;2023-07-09T07:25:17;25.50;99.90
9209;DHT22;4639;48.862;9.188;2023-07-09T07:27:42;25.60;99.90
9209;DHT22;4639;48.862;9.188;2023-07-09T07:30:09;25.90;99.90
9209;DHT22;4639;48.862;9.188;2023-07-09T07:32:36;25.90;99.90
9209;DHT22;4639;48.862;9.188;2023-07-09T07:35:02;26.00;99.90
9209;DHT22;4639;48.862;9.188;2023-07-09T07:37:28;26.00;99.90
9209;DHT22;4639;48.862;9.188;2023-07-09T07:39:53;26.00;99.90
9209;DHT22;4639;48.862;9.188;2023-07-09T07:42:19;26.10;99.90
9209;DHT22;4639;48.862;9.188;2023-07-09T07:44:45;26.20;99.90
9209;DHT22;4639;48.862;9.188;2023-07-09T07:47:10;26.40;99.90
9209;DHT22;4639;48.862;9.188;2023-07-09T07:49:37;26.50;99.90
9209;DHT22;4639;48.862;9.188;2023-07-09T07:52:03;27.00;99.90
9209;DHT22;4639;48.862;9.188;2023-07-09T07:54:29;26.90;99.90
9209;DHT22;4639;48.862;9.188;2023-07-09T07:56:57;26.90;99.90
9209;DHT22;4639;48.862;9.188;2023-07-09T07:59:23;27.10;99.90
9209;DHT22;4639;48.862;9.188;2023-07-09T08:01:49;27.20;99.90
9209;DHT22;4639;48.862;9.188;2023-07-09T08:04:15;27.30;99.90
9209;DHT22;4639;48.862;9.188;2023-07-09T08:06:40;27.60;99.90
9209;DHT22;4639;48.862;9.188;2023-07-09T08:09:06;27.90;99.90
9209;DHT22;4639;48.862;9.188;2023-07-09T08:11:32;27.90;99.90
9209;DHT22;4639;48.862;9.188;2023-07-09T08:13:58;28.00;99.90
9209;DHT22;4639;48.862;9.188;2023-07-09T08:16:23;28.10;99.90
9209;DHT22;4639;48.862;9.188;2023-07-09T08:18:49;28.20;99.90
9209;DHT22;4639;48.862;9.188;2023-07-09T08:21:17;28.40;99.90
9209;DHT22;4639;48.862;9.188;2023-07-09T08:23:43;28.50;99.90
9209;DHT22;4639;48.862;9.188;2023-07-09T08:26:08;28.70;99.90
9209;DHT22;4639;48.862;9.188;2023-07-09T08:28:34;28.80;99.90
9209;DHT22;4639;48.862;9.188;2023-07-09T08:31:00;29.00;99.90
9209;DHT22;4639;48.862;9.188;2023-07-09T08:33:26;29.10;99.90
9209;DHT22;4639;48.862;9.188;2023-07-09T08:35:53;29.20;99.90
9209;DHT22;4639;48.862;9.188;2023-07-09T08:38:20;29.40;99.90
9209;DHT22;4639;48.862;9.188;2023-07-09T08:46:58;29.70;99.90
9209;DHT22;4639;48.862;9.188;2023-07-09T08:49:58;29.90;99.90
9209;DHT22;4639;48.862;9.188;2023-07-09T08:52:46;30.10;99.90
9209;DHT22;4639;48.862;9.188;2023-07-09T08:55:19;30.20;99.90
9209;DHT22;4639;48.862;9.188;2023-07-09T08:57:47;30.40;99.90
9209;DHT22;4639;48.862;9.188;2023-07-09T09:00:27;30.50;99.90
9209;DHT22;4639;48.862;9.188;2023-07-09T09:03:08;30.60;99.90
9209;DHT22;4639;48.862;9.188;2023-07-09T09:05:39;30.60;99.90
9209;DHT22;4639;48.862;9.188;2023-07-09T09:08:34;30.60;99.90
9209;DHT22;4639;48.862;9.188;2023-07-09T09:14:04;30.70;99.90
9209;DHT22;4639;48.862;9.188;2023-07-09T09:16:37;30.90;99.90
9209;DHT22;4639;48.862;9.188;2023-07-09T09:19:15;31.20;99.90
9209;DHT22;4639;48.862;9.188;2023-07-09T09:21:43;31.40;99.90
9209;DHT22;4639;48.862;9.188;2023-07-09T09:24:19;31.60;99.90
9209;DHT22;4639;48.862;9.188;2023-07-09T09:26:48;31.80;99.90
9209;DHT22;4639;48.862;9.188;2023-07-09T09:29:16;31.90;99.90
9209;DHT22;4639;48.862;9.188;2023-07-09T09:31:45;32.00;99.90
9209;DHT22;4639;48.862;9.188;2023-07-09T09:34:29;32.00;99.90
9209;DHT22;4639;48.862;9.188;2023-07-09T09:36:58;32.10;99.20
9209;DHT22;4639;48.862;9.188;2023-07-09T09:39:29;32.40;99.40
9209;DHT22;4639;48.862;9.188;2023-07-09T09:41:58;32.30;99.10
9209;DHT22;4639;48.862;9.188;2023-07-09T09:44:28;32.20;99.30
9209;DHT22;4639;48.862;9.188;2023-07-09T09:46:56;32.20;98.80
9209;DHT22;4639;48.862;9.188;2023-07-09T09:49:22;32.30;99.00
9209;DHT22;4639;48.862;9.188;2023-07-09T09:51:48;32.60;99.20
9209;DHT22;4639;48.862;9.188;2023-07-09T09:54:24;32.80;99.20
9209;DHT22;4639;48.862;9.188;2023-07-09T09:56:52;33.10;98.30
9209;DHT22;4639;48.862;9.188;2023-07-09T09:59:31;33.40;97.70
9209;DHT22;4639;48.862;9.188;2023-07-09T10:01:59;33.50;97.30
9209;DHT22;4639;48.862;9.188;2023-07-09T10:04:26;33.60;96.60
9209;DHT22;4639;48.862;9.188;2023-07-09T10:07:07;33.70;97.30
9209;DHT22;4639;48.862;9.188;2023-07-09T10:09:50;33.70;95.90
9209;DHT22;4639;48.862;9.188;2023-07-09T10:14:56;34.20;95.90
9209;DHT22;4639;48.862;9.188;2023-07-09T10:17:40;34.40;95.30
9209;DHT22;4639;48.862;9.188;2023-07-09T10:20:25;34.60;95.20
9209;DHT22;4639;48.862;9.188;2023-07-09T10:25:54;34.90;93.40
9209;DHT22;4639;48.862;9.188;2023-07-09T10:28:27;35.10;92.80
9209;DHT22;4639;48.862;9.188;2023-07-09T10:31:21;35.40;92.50
9209;DHT22;4639;48.862;9.188;2023-07-09T10:34:02;35.50;92.30
9209;DHT22;4639;48.862;9.188;2023-07-09T10:39:45;35.90;89.80
9209;DHT22;4639;48.862;9.188;2023-07-09T10:42:29;36.10;90.00
9209;DHT22;4639;48.862;9.188;2023-07-09T10:45:11;36.20;90.10
9209;DHT22;4639;48.862;9.188;2023-07-09T10:47:44;36.40;87.90
9209;DHT22;4639;48.862;9.188;2023-07-09T10:50:32;36.60;87.10
9209;DHT22;4639;48.862;9.188;2023-07-09T10:53:04;36.80;86.60
9209;DHT22;4639;48.862;9.188;2023-07-09T10:55:47;37.00;84.50
9209;DHT22;4639;48.862;9.188;2023-07-09T11:01:29;37.20;84.60
9209;DHT22;4639;48.862;9.188;2023-07-09T11:04:01;37.30;83.70
9209;DHT22;4639;48.862;9.188;2023-07-09T11:06:36;37.30;81.90
9209;DHT22;4639;48.862;9.188;2023-07-09T11:09:12;37.30;83.40
9209;DHT22;4639;48.862;9.188;2023-07-09T11:11:46;37.20;81.70
9209;DHT22;4639;48.862;9.188;2023-07-09T11:14:26;37.50;81.90
9209;DHT22;4639;48.862;9.188;2023-07-09T11:16:56;37.90;81.80
9209;DHT22;4639;48.862;9.188;2023-07-09T11:19:24;38.10;82.30
9209;DHT22;4639;48.862;9.188;2023-07-09T11:22:06;38.20;79.60
9209;DHT22;4639;48.862;9.188;2023-07-09T11:27:24;37.60;79.70
9209;DHT22;4639;48.862;9.188;2023-07-09T11:30:00;37.20;79.30
9209;DHT22;4639;48.862;9.188;2023-07-09T11:32:27;36.80;79.50
9209;DHT22;4639;48.862;9.188;2023-07-09T11:34:54;36.40;76.60
9209;DHT22;4639;48.862;9.188;2023-07-09T11:37:25;36.40;76.70
9209;DHT22;4639;48.862;9.188;2023-07-09T11:39:51;36.60;79.50
9209;DHT22;4639;48.862;9.188;2023-07-09T11:44:51;36.90;81.30
9209;DHT22;4639;48.862;9.188;2023-07-09T11:52:50;37.30;78.70
9209;DHT22;4639;48.862;9.188;2023-07-09T11:57:47;36.70;78.30
9209;DHT22;4639;48.862;9.188;2023-07-09T12:00:14;36.50;77.10
9209;DHT22;4639;48.862;9.188;2023-07-09T12:02:40;36.30;76.50
9209;DHT22;4639;48.862;9.188;2023-07-09T12:05:06;36.30;77.00
9209;DHT22;4639;48.862;9.188;2023-07-09T12:07:32;36.10;79.20
9209;DHT22;4639;48.862;9.188;2023-07-09T12:09:58;36.10;79.10
9209;DHT22;4639;48.862;9.188;2023-07-09T12:12:26;36.10;78.30
9209;DHT22;4639;48.862;9.188;2023-07-09T12:14:51;36.00;78.40
9209;DHT22;4639;48.862;9.188;2023-07-09T12:17:18;36.00;78.90
9209;DHT22;4639;48.862;9.188;2023-07-09T12:19:44;36.10;79.20
9209;DHT22;4639;48.862;9.188;2023-07-09T12:22:17;36.10;77.80
9209;DHT22;4639;48.862;9.188;2023-07-09T12:24:44;36.20;79.40
9209;DHT22;4639;48.862;9.188;2023-07-09T12:27:22;36.30;77.60
9209;DHT22;4639;48.862;9.188;2023-07-09T12:29:51;36.40;79.40
9209;DHT22;4639;48.862;9.188;2023-07-09T12:32:17;36.60;78.70
9209;DHT22;4639;48.862;9.188;2023-07-09T12:34:49;36.80;78.30
9209;DHT22;4639;48.862;9.188;2023-07-09T12:37:15;36.90;78.40
9209;DHT22;4639;48.862;9.188;2023-07-09T12:39:41;37.00;76.50
9209;DHT22;4639;48.862;9.188;2023-07-09T12:42:17;36.90;76.80
9209;DHT22;4639;48.862;9.188;2023-07-09T12:44:44;36.60;76.90
9209;DHT22;4639;48.862;9.188;2023-07-09T12:47:13;36.70;76.80
9209;DHT22;4639;48.862;9.188;2023-07-09T12:49:42;36.80;78.10
9209;DHT22;4639;48.862;9.188;2023-07-09T12:52:18;36.90;78.50
9209;DHT22;4639;48.862;9.188;2023-07-09T12:54:55;37.10;75.00
9209;DHT22;4639;48.862;9.188;2023-07-09T12:57:21;37.20;77.20
9209;DHT22;4639;48.862;9.188;2023-07-09T12:59:47;37.10;77.60
9209;DHT22;4639;48.862;9.188;2023-07-09T13:02:28;37.20;78.10
9209;DHT22;4639;48.862;9.188;2023-07-09T13:05:03;37.30;76.80
9209;DHT22;4639;48.862;9.188;2023-07-09T13:07:32;37.40;77.60
9209;DHT22;4639;48.862;9.188;2023-07-09T13:10:15;37.60;77.00
9209;DHT22;4639;48.862;9.188;2023-07-09T13:12:49;37.60;74.70
9209;DHT22;4639;48.862;9.188;2023-07-09T13:15:48;37.60;75.80
9209;DHT22;4639;48.862;9.188;2023-07-09T13:18:15;37.70;74.50
9209;DHT22;4639;48.862;9.188;2023-07-09T13:20:42;37.80;76.30
9209;DHT22;4639;48.862;9.188;2023-07-09T13:23:17;38.00;72.80
9209;DHT22;4639;48.862;9.188;2023-07-09T13:25:43;38.20;71.60
9209;DHT22;4639;48.862;9.188;2023-07-09T13:28:19;38.30;70.40
9209;DHT22;4639;48.862;9.188;2023-07-09T13:30:46;38.50;72.30
9209;DHT22;4639;48.862;9.188;2023-07-09T13:33:12;38.70;69.10
9209;DHT22;4639;48.862;9.188;2023-07-09T13:35:38;38.70;70.20
9209;DHT22;4639;48.862;9.188;2023-07-09T13:38:14;38.50;71.30
9209;DHT22;4639;48.862;9.188;2023-07-09T13:40:40;38.20;69.10
9209;DHT22;4639;48.862;9.188;2023-07-09T13:43:14;38.00;71.50
9209;DHT22;4639;48.862;9.188;2023-07-09T13:45:40;37.80;71.60
9209;DHT22;4639;48.862;9.188;2023-07-09T13:48:13;37.80;73.20
9209;DHT22;4639;48.862;9.188;2023-07-09T13:50:39;37.80;71.70
9209;DHT22;4639;48.862;9.188;2023-07-09T13:53:13;38.00;73.20
9209;DHT22;4639;48.862;9.188;2023-07-09T13:55:40;38.00;68.90
9209;DHT22;4639;48.862;9.188;2023-07-09T13:58:11;38.00;71.10
9209;DHT22;4639;48.862;9.188;2023-07-09T14:00:38;38.00;71.60
9209;DHT22;4639;48.862;9.188;2023-07-09T14:03:15;37.90;71.50
9209;DHT22;4639;48.862;9.188;2023-07-09T14:05:40;37.80;70.70
9209;DHT22;4639;48.862;9.188;2023-07-09T14:08:08;37.80;72.90
9209;DHT22;4639;48.862;9.188;2023-07-09T14:10:34;37.90;72.20
9209;DHT22;4639;48.862;9.188;2023-07-09T14:13:00;38.10;71.50
9209;DHT22;4639;48.862;9.188;2023-07-09T14:15:27;38.00;72.20
9209;DHT22;4639;48.862;9.188;2023-07-09T14:17:54;38.00;72.30
9209;DHT22;4639;48.862;9.188;2023-07-09T14:20:20;38.20;71.70
9209;DHT22;4639;48.862;9.188;2023-07-09T14:22:47;38.40;74.40
9209;DHT22;4639;48.862;9.188;2023-07-09T14:25:24;38.80;73.40
9209;DHT22;4639;48.862;9.188;2023-07-09T14:27:52;39.30;72.30
9209;DHT22;4639;48.862;9.188;2023-07-09T14:30:20;39.60;68.80
9209;DHT22;4639;48.862;9.188;2023-07-09T14:32:48;39.30;69.40
9209;DHT22;4639;48.862;9.188;2023-07-09T14:35:21;38.80;70.80
9209;DHT22;4639;48.862;9.188;2023-07-09T14:37:50;38.50;70.50
9209;DHT22;4639;48.862;9.188;2023-07-09T14:40:19;38.20;70.80
9209;DHT22;4639;48.862;9.188;2023-07-09T14:42:48;38.00;71.90
9209;DHT22;4639;48.862;9.188;2023-07-09T14:45:23;37.90;72.60
9209;DHT22;4639;48.862;9.188;2023-07-09T14:47:51;38.00;73.70
9209;DHT22;4639;48.862;9.188;2023-07-09T14:50:18;38.10;71.60
9209;DHT22;4639;48.862;9.188;2023-07-09T14:52:45;38.10;71.50
9209;DHT22;4639;48.862;9.188;2023-07-09T14:55:16;38.30;72.80
9209;DHT22;4639;48.862;9.188;2023-07-09T14:57:42;38.70;72.80
9209;DHT22;4639;48.862;9.188;2023-07-09T15:00:22;39.00;70.90
9209;DHT22;4639;48.862;9.188;2023-07-09T15:02:52;39.40;69.40
9209;DHT22;4639;48.862;9.188;2023-07-09T15:05:22;39.80;67.90
9209;DHT22;4639;48.862;9.188;2023-07-09T15:07:49;39.80;69.60
9209;DHT22;4639;48.862;9.188;2023-07-09T15:10:17;39.80;70.60
9209;DHT22;4639;48.862;9.188;2023-07-09T15:12:43;39.70;69.30
9209;DHT22;4639;48.862;9.188;2023-07-09T15:15:25;39.60;70.50
9209;DHT22;4639;48.862;9.188;2023-07-09T15:17:52;39.40;69.90
9209;DHT22;4639;48.862;9.188;2023-07-09T15:20:21;39.10;70.20
9209;DHT22;4639;48.862;9.188;2023-07-09T15:22:49;38.90;70.80
9209;DHT22;4639;48.862;9.188;2023-07-09T15:25:20;38.90;73.70
9209;DHT22;4639;48.862;9.188;2023-07-09T15:27:47;39.10;71.70
9209;DHT22;4639;48.862;9.188;2023-07-09T15:30:21;39.20;71.80
9209;DHT22;4639;48.862;9.188;2023-07-09T15:32:48;39.10;70.80
9209;DHT22;4639;48.862;9.188;2023-07-09T15:35:16;38.90;72.40
9209;DHT22;4639;48.862;9.188;2023-07-09T15:37:42;38.80;72.50
9209;DHT22;4639;48.862;9.188;2023-07-09T15:40:26;38.60;72.60
9209;DHT22;4639;48.862;9.188;2023-07-09T15:42:58;38.50;74.60
9209;DHT22;4639;48.862;9.188;2023-07-09T15:45:24;38.40;76.90
9209;DHT22;4639;48.862;9.188;2023-07-09T15:47:51;38.40;73.40
9209;DHT22;4639;48.862;9.188;2023-07-09T15:50:21;38.20;74.70
9209;DHT22;4639;48.862;9.188;2023-07-09T15:52:48;37.90;74.40
9209;DHT22;4639;48.862;9.188;2023-07-09T15:55:16;37.70;74.80
9209;DHT22;4639;48.862;9.188;2023-07-09T15:57:42;37.70;76.80
9209;DHT22;4639;48.862;9.188;2023-07-09T16:00:30;37.70;76.10
9209;DHT22;4639;48.862;9.188;2023-07-09T16:02:57;37.80;77.20
9209;DHT22;4639;48.862;9.188;2023-07-09T16:05:26;38.00;76.50
9209;DHT22;4639;48.862;9.188;2023-07-09T16:07:54;38.00;75.20
9209;DHT22;4639;48.862;9.188;2023-07-09T16:10:21;37.90;74.00
9209;DHT22;4639;48.862;9.188;2023-07-09T16:12:48;37.70;74.20
9209;DHT22;4639;48.862;9.188;2023-07-09T16:15:16;37.60;74.00
9209;DHT22;4639;48.862;9.188;2023-07-09T16:17:43;37.50;74.00
9209;DHT22;4639;48.862;9.188;2023-07-09T16:20:11;37.40;74.60
9209;DHT22;4639;48.862;9.188;2023-07-09T16:22:38;37.30;73.50
9209;DHT22;4639;48.862;9.188;2023-07-09T16:25:20;37.20;74.40
9209;DHT22;4639;48.862;9.188;2023-07-09T16:27:46;37.10;74.50
9209;DHT22;4639;48.862;9.188;2023-07-09T16:32:40;37.00;73.80
9209;DHT22;4639;48.862;9.188;2023-07-09T16:35:06;36.80;74.40
9209;DHT22;4639;48.862;9.188;2023-07-09T16:37:32;36.70;74.00
9209;DHT22;4639;48.862;9.188;2023-07-09T16:39:57;36.60;73.80
9209;DHT22;4639;48.862;9.188;2023-07-09T16:42:23;36.50;74.20
9209;DHT22;4639;48.862;9.188;2023-07-09T16:44:48;36.50;74.70
9209;DHT22;4639;48.862;9.188;2023-07-09T16:47:16;36.40;74.30
9209;DHT22;4639;48.862;9.188;2023-07-09T16:49:42;36.50;74.90
9209;DHT22;4639;48.862;9.188;2023-07-09T16:52:14;36.50;74.90